sensor_id;sensor_type;location;lat;lon;timestamp;temperature;humidity
10572;DHT22;5334;48.928;12.704;2023-02-17T00:00:24;1.00;99.90
10572;DHT22;5334;48.928;12.704;2023-02-17T00:02:57;1.00;99.90
10572;DHT22;5334;48.928;12.704;2023-02-17T00:05:24;0.90;99.90
10572;DHT22;5334;48.928;12.704;2023-02-17T00:07:50;1.00;99.90
10572;DHT22;5334;48.928;12.704;2023-02-17T00:10:16;1.00;99.90
10572;DHT22;5334;48.928;12.704;2023-02-17T00:12:42;1.10;99.90
10572;DHT22;5334;48.928;12.704;2023-02-17T00:15:08;1.10;99.90
10572;DHT22;5334;48.928;12.704;2023-02-17T00:17:33;1.10;99.90
10572;DHT22;5334;48.928;12.704;2023-02-17T00:19:59;1.20;99.90
10572;DHT22;5334;48.928;12.704;2023-02-17T00:22:25;1.20;99.90
10572;DHT22;5334;48.928;12.704;2023-02-17T00:24:51;1.20;99.90
10572;DHT22;5334;48.928;12.704;2023-02-17T00:27:16;1.30;99.90
10572;DHT22;5334;48.928;12.704;2023-02-17T00:29:43;1.30;99.90
10572;DHT22;5334;48.928;12.704;2023-02-17T00:32:09;1.40;99.90
10572;DHT22;5334;48.928;12.704;2023-02-17T00:34:35;1.40;99.90
10572;DHT22;5334;48.928;12.704;2023-02-17T00:37:01;1.30;99.90
10572;DHT22;5334;48.928;12.704;2023-02-17T00:39:27;1.10;99.90
10572;DHT22;5334;48.928;12.704;2023-02-17T00:41:53;1.00;99.90
10572;DHT22;5334;48.928;12.704;2023-02-17T00:44:21;1.00;99.90
10572;DHT22;5334;48.928;12.704;2023-02-17T00:46:47;1.10;99.90
10572;DHT22;5334;48.928;12.704;2023-02-17T00:49:19;1.10;99.90
10572;DHT22;5334;48.928;12.704;2023-02-17T00:51:45;1.20;99.90
10572;DHT22;5334;48.928;12.704;2023-02-17T00:54:12;1.20;99.90
10572;DHT22;5334;48.928;12.704;2023-02-17T00:56:38;1.30;99.90
10572;DHT22;5334;48.928;12.704;2023-02-17T00:59:04;1.30;99.90
10572;DHT22;5334;48.928;12.704;2023-02-17T01:01:30;1.40;99.90
10572;DHT22;5334;48.928;12.704;2023-02-17T01:03:56;1.40;99.90
10572;DHT22;5334;48.928;12.704;2023-02-17T01:06:24;1.40;99.90
10572;DHT22;5334;48.928;12.704;2023-02-17T01:08:51;1.50;99.90
10572;DHT22;5334;48.928;12.704;2023-02-17T01:11:19;1.50;99.90
10572;DHT22;5334;48.928;12.704;2023-02-17T01:13:45;1.50;99.90
10572;DHT22;5334;48.928;12.704;2023-02-17T01:16:22;1.50;99.90
10572;DHT22;5334;48.928;12.704;2023-02-17T01:18:48;1.50;99.90
10572;DHT22;5334;48.928;12.704;2023-02-17T01:21:25;1.40;99.90
10572;DHT22;5334;48.928;12.704;2023-02-17T01:23:56;1.40;99.90
10572;DHT22;5334;48.928;12.704;2023-02-17T01:26:25;1.30;99.90
10572;DHT22;5334;48.928;12.704;2023-02-17T01:28:52;1.30;99.90
10572;DHT22;5334;48.928;12.704;2023-02-17T01:31:19;1.30;99.90
10572;DHT22;5334;48.928;12.704;2023-02-17T01:33:45;1.30;99.90
10572;DHT22;5334;48.928;12.704;2023-02-17T01:36:12;1.30;99.90
10572;DHT22;5334;48.928;12.704;2023-02-17T01:38:38;1.40;99.90
10572;DHT22;5334;48.928;12.704;2023-02-17T01:41:05;1.40;99.90
10572;DHT22;5334;48.928;12.704;2023-02-17T01:43:32;1.40;99.90
10572;DHT22;5334;48.928;12.704;2023-02-17T01:45:59;1.40;99.90
10572;DHT22;5334;48.928;12.704;2023-02-17T01:48:48;1.40;99.90
10572;DHT22;5334;48.928;12.704;2023-02-17T01:51:20;1.30;99.90
10572;DHT22;5334;48.928;12.704;2023-02-17T01:56:33;1.30;99.90
10572;DHT22;5334;48.928;12.704;2023-02-17T01:59:04;1.30;99.90
10572;DHT22;5334;48.928;12.704;2023-02-17T02:01:30;1.30;99.90
10572;DHT22;5334;48.928;12.704;2023-02-17T02:03:58;1.30;99.90
10572;DHT22;5334;48.928;12.704;2023-02-17T02:06:26;1.30;99.90
10572;DHT22;5334;48.928;12.704;2023-02-17T02:11:25;1.20;99.90
10572;DHT22;5334;48.928;12.704;2023-02-17T02:13:51;1.20;99.90
10572;DHT22;5334;48.928;12.704;2023-02-17T02:16:24;1.20;99.90
10572;DHT22;5334;48.928;12.704;2023-02-17T02:35:15;1.40;99.90
10572;DHT22;5334;48.928;12.704;2023-02-17T02:37:51;1.40;99.90
10572;DHT22;5334;48.928;12.704;2023-02-17T02:40:21;1.40;99.90
10572;DHT22;5334;48.928;12.704;2023-02-17T02:42:48;1.40;99.90
10572;DHT22;5334;48.928;12.704;2023-02-17T02:45:17;1.40;99.90
10572;DHT22;5334;48.928;12.704;2023-02-17T02:47:50;1.40;99.90
10572;DHT22;5334;48.928;12.704;2023-02-17T02:50:32;1.40;99.90
10572;DHT22;5334;48.928;12.704;2023-02-17T03:01:16;1.50;99.90
10572;DHT22;5334;48.928;12.704;2023-02-17T03:03:50;1.60;99.90
10572;DHT22;5334;48.928;12.704;2023-02-17T03:06:45;1.70;99.90
10572;DHT22;5334;48.928;12.704;2023-02-17T03:09:24;1.70;99.90
10572;DHT22;5334;48.928;12.704;2023-02-17T03:11:50;1.70;99.90
10572;DHT22;5334;48.928;12.704;2023-02-17T03:14:19;1.70;99.90
10572;DHT22;5334;48.928;12.704;2023-02-17T03:16:46;1.70;99.90
10572;DHT22;5334;48.928;12.704;2023-02-17T03:19:12;1.70;99.90
10572;DHT22;5334;48.928;12.704;2023-02-17T03:24:13;1.70;99.90
10572;DHT22;5334;48.928;12.704;2023-02-17T03:26:39;1.70;99.90
10572;DHT22;5334;48.928;12.704;2023-02-17T03:29:04;1.60;99.90
10572;DHT22;5334;48.928;12.704;2023-02-17T03:31:30;1.60;99.90
10572;DHT22;5334;48.928;12.704;2023-02-17T03:33:57;1.60;99.90
10572;DHT22;5334;48.928;12.704;2023-02-17T03:36:23;1.60;99.90
10572;DHT22;5334;48.928;12.704;2023-02-17T03:38:48;1.60;99.90
10572;DHT22;5334;48.928;12.704;2023-02-17T03:41:14;1.60;99.90
10572;DHT22;5334;48.928;12.704;2023-02-17T03:43:39;1.70;99.90
10572;DHT22;5334;48.928;12.704;2023-02-17T03:46:13;1.70;99.90
10572;DHT22;5334;48.928;12.704;2023-02-17T03:48:39;1.70;99.90
10572;DHT22;5334;48.928;12.704;2023-02-17T03:51:11;1.80;99.90
10572;DHT22;5334;48.928;12.704;2023-02-17T03:53:38;1.70;99.90
10572;DHT22;5334;48.928;12.704;2023-02-17T03:56:04;1.70;99.90
10572;DHT22;5334;48.928;12.704;2023-02-17T03:58:29;1.70;99.90
10572;DHT22;5334;48.928;12.704;2023-02-17T04:00:55;1.80;99.90
10572;DHT22;5334;48.928;12.704;2023-02-17T04:03:21;1.80;99.90
10572;DHT22;5334;48.928;12.704;2023-02-17T04:05:46;1.80;99.90
10572;DHT22;5334;48.928;12.704;2023-02-17T04:08:12;1.80;99.90
10572;DHT22;5334;48.928;12.704;2023-02-17T04:10:38;1.80;99.90
10572;DHT22;5334;48.928;12.704;2023-02-17T04:13:03;1.80;99.90
10572;DHT22;5334;48.928;12.704;2023-02-17T04:15:29;2.00;99.90
10572;DHT22;5334;48.928;12.704;2023-02-17T04:17:55;2.00;99.90
10572;DHT22;5334;48.928;12.704;2023-02-17T04:20:20;1.90;99.90
10572;DHT22;5334;48.928;12.704;2023-02-17T04:22:46;2.00;99.90
10572;DHT22;5334;48.928;12.704;2023-02-17T04:25:12;2.00;99.90
10572;DHT22;5334;48.928;12.704;2023-02-17T04:27:37;2.10;99.90
10572;DHT22;5334;48.928;12.704;2023-02-17T04:30:04;2.10;99.90
10572;DHT22;5334;48.928;12.704;2023-02-17T04:32:31;2.10;99.90
10572;DHT22;5334;48.928;12.704;2023-02-17T04:34:57;2.10;99.90
10572;DHT22;5334;48.928;12.704;2023-02-17T04:37:23;2.00;99.90
10572;DHT22;5334;48.928;12.704;2023-02-17T04:39:48;2.10;99.90
10572;DHT22;5334;48.928;12.704;2023-02-17T04:42:14;2.10;99.90
10572;DHT22;5334;48.928;12.704;2023-02-17T04:44:39;2.10;99.90
10572;DHT22;5334;48.928;12.704;2023-02-17T04:47:05;2.10;99.90
10572;DHT22;5334;48.928;12.704;2023-02-17T04:49:31;2.10;99.90
10572;DHT22;5334;48.928;12.704;2023-02-17T04:51:56;2.20;99.90
10572;DHT22;5334;48.928;12.704;2023-02-17T04:54:22;2.20;99.90
10572;DHT22;5334;48.928;12.704;2023-02-17T04:56:48;2.30;99.90
10572;DHT22;5334;48.928;12.704;2023-02-17T04:59:13;2.10;99.90
10572;DHT22;5334;48.928;12.704;2023-02-17T05:01:39;2.20;99.90
10572;DHT22;5334;48.928;12.704;2023-02-17T05:04:04;2.20;99.90
10572;DHT22;5334;48.928;12.704;2023-02-17T05:06:30;2.20;99.90
10572;DHT22;5334;48.928;12.704;2023-02-17T05:08:56;2.20;99.90
10572;DHT22;5334;48.928;12.704;2023-02-17T05:11:22;2.10;99.90
10572;DHT22;5334;48.928;12.704;2023-02-17T05:13:47;2.10;99.90
10572;DHT22;5334;48.928;12.704;2023-02-17T05:16:13;2.10;99.90
10572;DHT22;5334;48.928;12.704;2023-02-17T05:18:38;2.10;99.90
10572;DHT22;5334;48.928;12.704;2023-02-17T05:23:30;2.30;99.90
10572;DHT22;5334;48.928;12.704;2023-02-17T05:25:56;2.30;99.90
10572;DHT22;5334;48.928;12.704;2023-02-17T05:28:22;2.30;99.90
10572;DHT22;5334;48.928;12.704;2023-02-17T05:30:48;2.30;99.90
10572;DHT22;5334;48.928;12.704;2023-02-17T05:33:14;2.30;99.90
10572;DHT22;5334;48.928;12.704;2023-02-17T05:35:40;2.30;99.90
10572;DHT22;5334;48.928;12.704;2023-02-17T05:38:06;2.30;99.90
10572;DHT22;5334;48.928;12.704;2023-02-17T05:40:32;2.30;99.90
10572;DHT22;5334;48.928;12.704;2023-02-17T05:42:57;2.40;99.90
10572;DHT22;5334;48.928;12.704;2023-02-17T05:45:23;2.50;99.90
10572;DHT22;5334;48.928;12.704;2023-02-17T05:47:49;2.50;99.90
10572;DHT22;5334;48.928;12.704;2023-02-17T05:50:15;2.60;99.90
10572;DHT22;5334;48.928;12.704;2023-02-17T05:52:42;2.60;99.90
10572;DHT22;5334;48.928;12.704;2023-02-17T05:55:08;2.70;99.90
10572;DHT22;5334;48.928;12.704;2023-02-17T05:57:35;2.70;99.90
10572;DHT22;5334;48.928;12.704;2023-02-17T06:00:01;2.80;99.90
10572;DHT22;5334;48.928;12.704;2023-02-17T06:02:27;2.80;99.90
10572;DHT22;5334;48.928;12.704;2023-02-17T06:04:53;2.90;99.90
10572;DHT22;5334;48.928;12.704;2023-02-17T06:07:18;2.90;99.90
10572;DHT22;5334;48.928;12.704;2023-02-17T06:09:44;2.80;99.90
10572;DHT22;5334;48.928;12.704;2023-02-17T06:12:11;2.80;99.90
10572;DHT22;5334;48.928;12.704;2023-02-17T06:14:36;2.80;99.90
10572;DHT22;5334;48.928;12.704;2023-02-17T06:17:02;2.90;99.90
10572;DHT22;5334;48.928;12.704;2023-02-17T06:19:28;2.90;99.90
10572;DHT22;5334;48.928;12.704;2023-02-17T06:21:56;2.90;99.90
10572;DHT22;5334;48.928;12.704;2023-02-17T06:24:22;3.00;99.90
10572;DHT22;5334;48.928;12.704;2023-02-17T06:26:48;3.00;99.90
10572;DHT22;5334;48.928;12.704;2023-02-17T06:29:14;3.00;99.90
10572;DHT22;5334;48.928;12.704;2023-02-17T06:31:40;3.00;99.90
10572;DHT22;5334;48.928;12.704;2023-02-17T06:34:10;3.00;99.90
10572;DHT22;5334;48.928;12.704;2023-02-17T06:36:36;2.90;99.90
10572;DHT22;5334;48.928;12.704;2023-02-17T06:39:02;2.80;99.90
10572;DHT22;5334;48.928;12.704;2023-02-17T06:41:27;2.80;99.90
10572;DHT22;5334;48.928;12.704;2023-02-17T06:43:53;2.80;99.90
10572;DHT22;5334;48.928;12.704;2023-02-17T06:46:19;2.80;99.90
10572;DHT22;5334;48.928;12.704;2023-02-17T06:48:44;2.80;99.90
10572;DHT22;5334;48.928;12.704;2023-02-17T06:51:10;2.90;99.90
10572;DHT22;5334;48.928;12.704;2023-02-17T06:53:36;2.90;99.90
10572;DHT22;5334;48.928;12.704;2023-02-17T06:56:01;3.00;99.90
10572;DHT22;5334;48.928;12.704;2023-02-17T06:58:27;3.00;99.90
10572;DHT22;5334;48.928;12.704;2023-02-17T07:00:53;3.00;99.90
10572;DHT22;5334;48.928;12.704;2023-02-17T07:03:18;3.20;99.90
10572;DHT22;5334;48.928;12.704;2023-02-17T07:05:44;3.30;99.90
10572;DHT22;5334;48.928;12.704;2023-02-17T07:08:09;3.30;99.90
10572;DHT22;5334;48.928;12.704;2023-02-17T07:10:36;3.30;99.90
10572;DHT22;5334;48.928;12.704;2023-02-17T07:13:02;3.30;99.90
10572;DHT22;5334;48.928;12.704;2023-02-17T07:15:28;3.20;99.90
10572;DHT22;5334;48.928;12.704;2023-02-17T07:17:56;3.20;99.90
10572;DHT22;5334;48.928;12.704;2023-02-17T07:20:22;3.20;99.90
10572;DHT22;5334;48.928;12.704;2023-02-17T07:22:48;3.20;99.90
10572;DHT22;5334;48.928;12.704;2023-02-17T07:25:13;3.30;99.90
10572;DHT22;5334;48.928;12.704;2023-02-17T07:27:39;3.30;99.90
10572;DHT22;5334;48.928;12.704;2023-02-17T07:30:11;3.30;99.90
10572;DHT22;5334;48.928;12.704;2023-02-17T07:32:37;3.30;99.90
10572;DHT22;5334;48.928;12.704;2023-02-17T07:35:03;3.30;99.90
10572;DHT22;5334;48.928;12.704;2023-02-17T07:37:29;3.30;99.90
10572;DHT22;5334;48.928;12.704;2023-02-17T07:39:55;3.30;99.90
10572;DHT22;5334;48.928;12.704;2023-02-17T07:42:21;3.40;99.90
10572;DHT22;5334;48.928;12.704;2023-02-17T07:44:50;3.40;99.90
10572;DHT22;5334;48.928;12.704;2023-02-17T07:47:16;3.30;99.90
10572;DHT22;5334;48.928;12.704;2023-02-17T07:49:41;3.40;99.90
10572;DHT22;5334;48.928;12.704;2023-02-17T07:52:07;3.40;99.90
10572;DHT22;5334;48.928;12.704;2023-02-17T07:54:33;3.40;99.90
10572;DHT22;5334;48.928;12.704;2023-02-17T07:56:59;3.30;99.90
10572;DHT22;5334;48.928;12.704;2023-02-17T07:59:28;3.30;99.90
10572;DHT22;5334;48.928;12.704;2023-02-17T08:01:53;3.40;99.90
10572;DHT22;5334;48.928;12.704;2023-02-17T08:04:19;3.40;99.90
10572;DHT22;5334;48.928;12.704;2023-02-17T08:06:45;3.50;99.90
10572;DHT22;5334;48.928;12.704;2023-02-17T08:09:11;3.50;99.90
10572;DHT22;5334;48.928;12.704;2023-02-17T08:11:55;3.60;99.90
10572;DHT22;5334;48.928;12.704;2023-02-17T08:14:40;3.60;99.90
10572;DHT22;5334;48.928;12.704;2023-02-17T08:17:06;3.60;99.90
10572;DHT22;5334;48.928;12.704;2023-02-17T08:19:32;3.60;99.90
10572;DHT22;5334;48.928;12.704;2023-02-17T08:21:57;3.70;99.90
10572;DHT22;5334;48.928;12.704;2023-02-17T08:24:23;3.70;99.90
10572;DHT22;5334;48.928;12.704;2023-02-17T08:26:50;3.80;99.90
10572;DHT22;5334;48.928;12.704;2023-02-17T08:29:16;3.90;99.90
10572;DHT22;5334;48.928;12.704;2023-02-17T08:31:44;3.90;99.90
10572;DHT22;5334;48.928;12.704;2023-02-17T08:34:11;3.90;99.90
10572;DHT22;5334;48.928;12.704;2023-02-17T08:36:38;4.00;99.90
10572;DHT22;5334;48.928;12.704;2023-02-17T08:39:10;4.10;99.90
10572;DHT22;5334;48.928;12.704;2023-02-17T08:41:40;4.20;99.90
10572;DHT22;5334;48.928;12.704;2023-02-17T08:44:10;4.30;99.90
10572;DHT22;5334;48.928;12.704;2023-02-17T08:46:37;4.30;99.90
10572;DHT22;5334;48.928;12.704;2023-02-17T08:49:04;4.40;99.90
10572;DHT22;5334;48.928;12.704;2023-02-17T08:51:29;4.40;99.90
10572;DHT22;5334;48.928;12.704;2023-02-17T08:53:58;4.60;99.90
10572;DHT22;5334;48.928;12.704;2023-02-17T08:56:25;4.70;99.90
10572;DHT22;5334;48.928;12.704;2023-02-17T08:58:51;4.70;99.90
10572;DHT22;5334;48.928;12.704;2023-02-17T09:01:17;4.90;99.90
10572;DHT22;5334;48.928;12.704;2023-02-17T09:06:10;5.00;99.90
10572;DHT22;5334;48.928;12.704;2023-02-17T09:08:39;5.10;99.90
10572;DHT22;5334;48.928;12.704;2023-02-17T09:11:06;5.10;99.90
10572;DHT22;5334;48.928;12.704;2023-02-17T09:13:32;5.10;99.90
10572;DHT22;5334;48.928;12.704;2023-02-17T09:15:58;5.10;99.90
10572;DHT22;5334;48.928;12.704;2023-02-17T09:18:24;5.20;99.90
10572;DHT22;5334;48.928;12.704;2023-02-17T09:20:50;5.40;99.90
10572;DHT22;5334;48.928;12.704;2023-02-17T09:23:17;5.50;99.90
10572;DHT22;5334;48.928;12.704;2023-02-17T09:25:43;5.50;99.90
10572;DHT22;5334;48.928;12.704;2023-02-17T09:28:10;5.50;99.90
10572;DHT22;5334;48.928;12.704;2023-02-17T09:30:36;5.50;99.90
10572;DHT22;5334;48.928;12.704;2023-02-17T09:33:02;5.70;99.90
10572;DHT22;5334;48.928;12.704;2023-02-17T09:35:30;5.80;99.90
10572;DHT22;5334;48.928;12.704;2023-02-17T09:37:56;5.80;99.90
10572;DHT22;5334;48.928;12.704;2023-02-17T09:40:43;5.90;99.90
10572;DHT22;5334;48.928;12.704;2023-02-17T09:45:42;6.40;99.90
10572;DHT22;5334;48.928;12.704;2023-02-17T09:48:12;6.60;99.90
10572;DHT22;5334;48.928;12.704;2023-02-17T09:51:01;6.80;99.90
10572;DHT22;5334;48.928;12.704;2023-02-17T09:53:50;6.90;99.90
10572;DHT22;5334;48.928;12.704;2023-02-17T09:56:30;7.00;99.90
10572;DHT22;5334;48.928;12.704;2023-02-17T09:58:59;7.10;99.90
10572;DHT22;5334;48.928;12.704;2023-02-17T10:01:30;7.20;99.90
10572;DHT22;5334;48.928;12.704;2023-02-17T10:04:06;7.40;99.90
10572;DHT22;5334;48.928;12.704;2023-02-17T10:06:36;7.70;99.90
10572;DHT22;5334;48.928;12.704;2023-02-17T10:09:03;7.80;99.90
10572;DHT22;5334;48.928;12.704;2023-02-17T10:14:15;8.00;99.90
10572;DHT22;5334;48.928;12.704;2023-02-17T10:16:52;8.20;99.90
10572;DHT22;5334;48.928;12.704;2023-02-17T10:19:36;8.50;99.90
10572;DHT22;5334;48.928;12.704;2023-02-17T10:24:32;8.50;99.90
10572;DHT22;5334;48.928;12.704;2023-02-17T10:32:26;8.30;99.90
10572;DHT22;5334;48.928;12.704;2023-02-17T10:37:48;8.30;99.90
10572;DHT22;5334;48.928;12.704;2023-02-17T10:40:26;8.20;99.90
10572;DHT22;5334;48.928;12.704;2023-02-17T10:42:55;8.10;99.90
10572;DHT22;5334;48.928;12.704;2023-02-17T10:48:05;7.90;99.90
10572;DHT22;5334;48.928;12.704;2023-02-17T10:50:33;7.90;99.90
10572;DHT22;5334;48.928;12.704;2023-02-17T10:53:01;7.80;99.90
10572;DHT22;5334;48.928;12.704;2023-02-17T11:01:10;7.50;99.90
10572;DHT22;5334;48.928;12.704;2023-02-17T11:03:37;7.50;99.90
10572;DHT22;5334;48.928;12.704;2023-02-17T11:06:16;7.60;99.90
10572;DHT22;5334;48.928;12.704;2023-02-17T11:08:48;7.70;99.90
10572;DHT22;5334;48.928;12.704;2023-02-17T11:11:25;7.70;99.90
10572;DHT22;5334;48.928;12.704;2023-02-17T11:14:20;7.80;99.90
10572;DHT22;5334;48.928;12.704;2023-02-17T11:16:55;8.00;99.90
10572;DHT22;5334;48.928;12.704;2023-02-17T11:19:31;8.00;99.90
10572;DHT22;5334;48.928;12.704;2023-02-17T11:22:29;8.00;99.90
10572;DHT22;5334;48.928;12.704;2023-02-17T11:24:58;7.90;99.90
10572;DHT22;5334;48.928;12.704;2023-02-17T11:27:25;7.90;99.90
10572;DHT22;5334;48.928;12.704;2023-02-17T11:29:51;7.90;99.90
10572;DHT22;5334;48.928;12.704;2023-02-17T11:32:17;7.90;99.90
10572;DHT22;5334;48.928;12.704;2023-02-17T11:34:55;7.80;99.90
10572;DHT22;5334;48.928;12.704;2023-02-17T11:37:22;7.70;99.90
10572;DHT22;5334;48.928;12.704;2023-02-17T11:39:52;7.60;99.90
10572;DHT22;5334;48.928;12.704;2023-02-17T11:42:28;7.60;99.90
10572;DHT22;5334;48.928;12.704;2023-02-17T11:45:00;7.70;99.90
10572;DHT22;5334;48.928;12.704;2023-02-17T11:47:44;7.70;99.90
10572;DHT22;5334;48.928;12.704;2023-02-17T11:50:41;7.80;99.90
10572;DHT22;5334;48.928;12.704;2023-02-17T11:53:51;7.70;99.90
10572;DHT22;5334;48.928;12.704;2023-02-17T11:56:24;7.70;99.90
10572;DHT22;5334;48.928;12.704;2023-02-17T11:59:14;7.60;99.90
10572;DHT22;5334;48.928;12.704;2023-02-17T12:11:00;7.80;99.90
10572;DHT22;5334;48.928;12.704;2023-02-17T12:22:13;8.10;99.90
10572;DHT22;5334;48.928;12.704;2023-02-17T12:24:53;8.10;99.90
10572;DHT22;5334;48.928;12.704;2023-02-17T12:33:07;8.00;99.90
10572;DHT22;5334;48.928;12.704;2023-02-17T12:35:48;8.10;99.90
10572;DHT22;5334;48.928;12.704;2023-02-17T12:38:24;8.10;99.90
10572;DHT22;5334;48.928;12.704;2023-02-17T12:40:54;8.20;99.90
10572;DHT22;5334;48.928;12.704;2023-02-17T12:43:39;8.30;99.90
10572;DHT22;5334;48.928;12.704;2023-02-17T12:46:11;8.40;99.90
10572;DHT22;5334;48.928;12.704;2023-02-17T12:49:02;8.50;99.90
10572;DHT22;5334;48.928;12.704;2023-02-17T12:59:16;8.70;99.90
10572;DHT22;5334;48.928;12.704;2023-02-17T13:01:49;8.60;99.90
10572;DHT22;5334;48.928;12.704;2023-02-17T13:04:17;8.60;99.90
10572;DHT22;5334;48.928;12.704;2023-02-17T13:06:50;8.60;99.90
10572;DHT22;5334;48.928;12.704;2023-02-17T13:09:30;8.60;99.90
10572;DHT22;5334;48.928;12.704;2023-02-17T13:15:04;8.50;99.90
10572;DHT22;5334;48.928;12.704;2023-02-17T13:17:53;8.50;99.90
10572;DHT22;5334;48.928;12.704;2023-02-17T13:22:45;8.40;99.90
10572;DHT22;5334;48.928;12.704;2023-02-17T13:25:26;8.30;99.90
10572;DHT22;5334;48.928;12.704;2023-02-17T13:27:52;8.30;99.90
10572;DHT22;5334;48.928;12.704;2023-02-17T13:33:04;8.30;99.90
10572;DHT22;5334;48.928;12.704;2023-02-17T13:35:33;8.40;99.90
10572;DHT22;5334;48.928;12.704;2023-02-17T13:37:59;8.40;99.90
10572;DHT22;5334;48.928;12.704;2023-02-17T13:40:33;8.50;99.90
10572;DHT22;5334;48.928;12.704;2023-02-17T13:43:14;8.60;99.90
10572;DHT22;5334;48.928;12.704;2023-02-17T13:48:23;8.70;99.90
10572;DHT22;5334;48.928;12.704;2023-02-17T13:50:51;8.60;99.90
10572;DHT22;5334;48.928;12.704;2023-02-17T13:53:24;8.60;99.90
10572;DHT22;5334;48.928;12.704;2023-02-17T13:55:51;8.70;99.90
10572;DHT22;5334;48.928;12.704;2023-02-17T13:58:22;8.80;99.90
10572;DHT22;5334;48.928;12.704;2023-02-17T14:00:48;8.80;99.90
10572;DHT22;5334;48.928;12.704;2023-02-17T14:06:03;8.80;99.90
10572;DHT22;5334;48.928;12.704;2023-02-17T14:11:12;8.70;99.90
10572;DHT22;5334;48.928;12.704;2023-02-17T14:13:41;8.50;99.90
10572;DHT22;5334;48.928;12.704;2023-02-17T14:21:26;7.90;99.90
10572;DHT22;5334;48.928;12.704;2023-02-17T14:23:54;7.80;99.90
10572;DHT22;5334;48.928;12.704;2023-02-17T14:26:31;7.70;99.90
10572;DHT22;5334;48.928;12.704;2023-02-17T14:28:59;7.70;99.90
10572;DHT22;5334;48.928;12.704;2023-02-17T14:31:26;7.70;99.90
10572;DHT22;5334;48.928;12.704;2023-02-17T14:33:58;7.80;99.90
10572;DHT22;5334;48.928;12.704;2023-02-17T14:36:34;7.90;99.90
10572;DHT22;5334;48.928;12.704;2023-02-17T14:39:03;8.00;99.90
10572;DHT22;5334;48.928;12.704;2023-02-17T14:41:29;8.10;99.90
10572;DHT22;5334;48.928;12.704;2023-02-17T14:43:55;8.20;99.90
10572;DHT22;5334;48.928;12.704;2023-02-17T14:46:21;8.40;99.90
10572;DHT22;5334;48.928;12.704;2023-02-17T14:48:48;8.50;99.90
10572;DHT22;5334;48.928;12.704;2023-02-17T14:51:18;8.70;99.90
10572;DHT22;5334;48.928;12.704;2023-02-17T14:53:44;8.70;99.90
10572;DHT22;5334;48.928;12.704;2023-02-17T14:58:53;8.40;99.90
10572;DHT22;5334;48.928;12.704;2023-02-17T15:01:20;8.20;99.90
10572;DHT22;5334;48.928;12.704;2023-02-17T15:03:46;8.20;99.90
10572;DHT22;5334;48.928;12.704;2023-02-17T15:06:24;8.10;99.90
10572;DHT22;5334;48.928;12.704;2023-02-17T15:08:50;8.20;99.90
10572;DHT22;5334;48.928;12.704;2023-02-17T15:11:33;8.20;99.90
10572;DHT22;5334;48.928;12.704;2023-02-17T15:14:02;8.30;99.90
10572;DHT22;5334;48.928;12.704;2023-02-17T15:16:28;8.40;99.90
10572;DHT22;5334;48.928;12.704;2023-02-17T15:18:54;8.60;99.90
10572;DHT22;5334;48.928;12.704;2023-02-17T15:21:28;8.60;99.90
10572;DHT22;5334;48.928;12.704;2023-02-17T15:23:54;8.90;99.90
10572;DHT22;5334;48.928;12.704;2023-02-17T15:28:48;9.10;99.90
10572;DHT22;5334;48.928;12.704;2023-02-17T15:31:14;9.20;99.90
10572;DHT22;5334;48.928;12.704;2023-02-17T15:33:42;9.30;99.90
10572;DHT22;5334;48.928;12.704;2023-02-17T15:36:12;9.50;99.90
10572;DHT22;5334;48.928;12.704;2023-02-17T15:38:40;9.50;99.90
10572;DHT22;5334;48.928;12.704;2023-02-17T15:41:20;9.60;99.90
10572;DHT22;5334;48.928;12.704;2023-02-17T15:43:47;9.60;99.90
10572;DHT22;5334;48.928;12.704;2023-02-17T15:46:17;9.30;99.90
10572;DHT22;5334;48.928;12.704;2023-02-17T15:48:44;9.10;99.90
10572;DHT22;5334;48.928;12.704;2023-02-17T15:51:13;8.80;99.90
10572;DHT22;5334;48.928;12.704;2023-02-17T15:53:40;8.70;99.90
10572;DHT22;5334;48.928;12.704;2023-02-17T15:56:26;8.60;99.90
10572;DHT22;5334;48.928;12.704;2023-02-17T15:58:54;8.40;99.90
10572;DHT22;5334;48.928;12.704;2023-02-17T16:01:30;8.30;99.90
10572;DHT22;5334;48.928;12.704;2023-02-17T16:03:57;8.30;99.90
10572;DHT22;5334;48.928;12.704;2023-02-17T16:06:24;8.30;99.90
10572;DHT22;5334;48.928;12.704;2023-02-17T16:08:50;8.20;99.90
10572;DHT22;5334;48.928;12.704;2023-02-17T16:11:17;8.20;99.90
10572;DHT22;5334;48.928;12.704;2023-02-17T16:13:45;8.30;99.90
10572;DHT22;5334;48.928;12.704;2023-02-17T16:16:17;8.30;99.90
10572;DHT22;5334;48.928;12.704;2023-02-17T16:18:45;8.30;99.90
10572;DHT22;5334;48.928;12.704;2023-02-17T16:21:13;8.30;99.90
10572;DHT22;5334;48.928;12.704;2023-02-17T16:23:39;8.20;99.90
10572;DHT22;5334;48.928;12.704;2023-02-17T16:26:22;8.20;99.90
10572;DHT22;5334;48.928;12.704;2023-02-17T16:28:49;8.20;99.90
10572;DHT22;5334;48.928;12.704;2023-02-17T16:31:14;8.20;99.90
10572;DHT22;5334;48.928;12.704;2023-02-17T16:33:40;8.20;99.90
10572;DHT22;5334;48.928;12.704;2023-02-17T16:36:16;8.10;99.90
10572;DHT22;5334;48.928;12.704;2023-02-17T16:38:42;8.10;99.90
10572;DHT22;5334;48.928;12.704;2023-02-17T16:41:15;8.10;99.90
10572;DHT22;5334;48.928;12.704;2023-02-17T16:43:41;8.20;99.90
10572;DHT22;5334;48.928;12.704;2023-02-17T16:46:18;8.10;99.90
10572;DHT22;5334;48.928;12.704;2023-02-17T16:48:44;8.10;99.90
10572;DHT22;5334;48.928;12.704;2023-02-17T16:51:10;8.10;99.90
10572;DHT22;5334;48.928;12.704;2023-02-17T16:53:36;8.10;99.90
10572;DHT22;5334;48.928;12.704;2023-02-17T16:56:11;8.00;99.90
10572;DHT22;5334;48.928;12.704;2023-02-17T16:58:39;7.90;99.90
10572;DHT22;5334;48.928;12.704;2023-02-17T17:01:05;7.80;99.90
10572;DHT22;5334;48.928;12.704;2023-02-17T17:03:37;7.80;99.90
10572;DHT22;5334;48.928;12.704;2023-02-17T17:06:18;7.80;99.90
10572;DHT22;5334;48.928;12.704;2023-02-17T17:08:45;7.80;99.90
10572;DHT22;5334;48.928;12.704;2023-02-17T17:11:14;7.80;99.90
10572;DHT22;5334;48.928;12.704;2023-02-17T17:13:41;7.80;99.90
10572;DHT22;5334;48.928;12.704;2023-02-17T17:16:26;7.90;99.90
10572;DHT22;5334;48.928;12.704;2023-02-17T17:18:52;7.90;99.90
10572;DHT22;5334;48.928;12.704;2023-02-17T17:21:19;8.00;99.90
10572;DHT22;5334;48.928;12.704;2023-02-17T17:23:45;8.00;99.90
10572;DHT22;5334;48.928;12.704;2023-02-17T17:26:30;8.00;99.90
10572;DHT22;5334;48.928;12.704;2023-02-17T17:28:56;8.10;99.90
10572;DHT22;5334;48.928;12.704;2023-02-17T17:31:22;8.00;99.90
10572;DHT22;5334;48.928;12.704;2023-02-17T17:33:49;7.80;99.90
10572;DHT22;5334;48.928;12.704;2023-02-17T17:36:26;7.60;99.90
10572;DHT22;5334;48.928;12.704;2023-02-17T17:38:53;7.50;99.90
10572;DHT22;5334;48.928;12.704;2023-02-17T17:41:20;7.50;99.90
10572;DHT22;5334;48.928;12.704;2023-02-17T17:43:46;7.50;99.90
10572;DHT22;5334;48.928;12.704;2023-02-17T17:46:15;7.50;99.90
10572;DHT22;5334;48.928;12.704;2023-02-17T17:48:42;7.60;99.90
10572;DHT22;5334;48.928;12.704;2023-02-17T17:51:13;7.70;99.90
10572;DHT22;5334;48.928;12.704;2023-02-17T17:53:39;7.70;99.90
10572;DHT22;5334;48.928;12.704;2023-02-17T17:56:05;7.80;99.90